Time;durP1;ratioP1;P1;durP2;ratioP2;P2;SDS_P1;SDS_P2;PMS_P1;PMS_P2;Temp;Humidity;BMP_temperature;BMP_pressure;BME280_temperature;BME280_humidity;BME280_pressure;Samples;Min_cycle;Max_cycle;Signal;HPM_P1;HPM_P2
2023/03/17 00:01:09;;;;;;;9.43;5.70;;;;;;;5.41;84.58;100330.47;5108691;28;20027;-25
2023/03/17 00:03:39;;;;;;;9.63;5.90;;;;;;;5.30;82.83;100307.09;5090755;28;20100;-25
2023/03/17 00:06:13;;;;;;;10.43;6.15;;;;;;;5.37;82.49;100331.81;5108616;28;20022;-25
2023/03/17 00:08:39;;;;;;;10.00;6.03;;;;;;;5.42;82.90;100332.13;5108515;28;20126;-25
2023/03/17 00:11:09;;;;;;;11.95;5.72;;;;;;;5.30;83.59;100329.09;5090498;28;20145;-25
2023/03/17 00:13:34;;;;;;;9.38;5.82;;;;;;;5.46;82.59;100336.06;5090347;28;20180;-25
2023/03/17 00:16:08;;;;;;;8.93;5.35;;;;;;;5.46;81.87;100336.06;5108391;28;20024;-28
2023/03/17 00:18:34;;;;;;;11.00;6.13;;;;;;;5.38;83.43;100328.19;5108766;28;20023;-30
2023/03/17 00:21:00;;;;;;;10.13;6.07;;;;;;;5.28;82.81;100314.41;5108401;28;20031;-25
2023/03/17 00:23:25;;;;;;;9.38;5.68;;;;;;;5.52;81.74;100340.63;5108262;28;20678;-26
2023/03/17 00:25:52;;;;;;;9.63;5.80;;;;;;;5.50;81.85;100337.34;5089869;28;20042;-29
2023/03/17 00:28:21;;;;;;;11.70;5.80;;;;;;;5.50;81.11;100331.25;5089909;28;20410;-27
2023/03/17 00:30:48;;;;;;;11.43;6.22;;;;;;;5.46;82.33;100341.34;5090270;28;20028;-25
2023/03/17 00:33:15;;;;;;;11.33;5.73;;;;;;;5.43;81.29;100331.97;5108385;28;20057;-25
2023/03/17 00:35:44;;;;;;;9.70;6.35;;;;;;;5.48;81.99;100338.53;5089674;28;20277;-31
2023/03/17 00:38:14;;;;;;;8.95;5.57;;;;;;;5.38;82.28;100330.84;5090074;28;20034;-24
2023/03/17 00:40:40;;;;;;;9.88;5.63;;;;;;;5.38;81.92;100330.84;5108407;28;20034;-25
2023/03/17 00:43:07;;;;;;;9.23;5.20;;;;;;;5.61;81.03;100336.09;5108574;28;20024;-28
2023/03/17 00:45:33;;;;;;;9.80;5.72;;;;;;;5.64;82.03;100331.28;5089840;28;20043;-25
2023/03/17 00:47:59;;;;;;;9.60;5.45;;;;;;;5.82;80.71;100338.88;5107796;28;20031;-28
2023/03/17 00:50:27;;;;;;;9.07;5.60;;;;;;;5.71;80.88;100336.66;5090020;28;20027;-25
2023/03/17 00:52:56;;;;;;;9.65;6.13;;;;;;;5.74;81.17;100341.59;5090094;28;20398;-25
2023/03/17 00:55:23;;;;;;;10.00;5.50;;;;;;;5.57;80.81;100351.50;5108270;28;20043;-28
2023/03/17 00:57:49;;;;;;;9.63;5.75;;;;;;;5.56;81.24;100341.94;5089669;28;20024;-26
2023/03/17 01:00:26;;;;;;;10.02;5.57;;;;;;;5.69;80.18;100357.19;5108241;28;20066;-25
2023/03/17 01:02:53;;;;;;;9.90;5.78;;;;;;;5.62;80.25;100338.56;5089602;28;20061;-25
2023/03/17 01:05:20;;;;;;;9.45;5.63;;;;;;;5.69;80.39;100345.78;5089871;28;20032;-25
2023/03/17 01:07:51;;;;;;;9.80;5.43;;;;;;;5.71;79.94;100351.72;5089548;28;20437;-23
2023/03/17 01:10:27;;;;;;;9.10;5.45;;;;;;;5.66;80.76;100360.19;5107997;28;20038;-25
2023/03/17 01:12:56;;;;;;;8.75;5.15;;;;;;;5.55;81.07;100347.38;5108169;28;20120;-26
2023/03/17 01:15:23;;;;;;;9.88;5.38;;;;;;;5.67;81.54;100371.59;5107669;28;20027;-29
2023/03/17 01:17:50;;;;;;;10.82;6.03;;;;;;;5.83;80.54;100363.50;5089615;28;20118;-25
2023/03/17 01:20:22;;;;;;;8.23;5.20;;;;;;;5.70;79.98;100355.34;5089620;28;20031;-26
2023/03/17 01:22:49;;;;;;;8.88;5.15;;;;;;;5.57;81.25;100366.53;5089112;28;20043;-25
2023/03/17 01:25:16;;;;;;;9.15;5.50;;;;;;;5.43;80.59;100352.28;5089423;28;20035;-25
2023/03/17 01:27:44;;;;;;;8.67;5.40;;;;;;;5.42;81.44;100369.97;5089100;28;20040;-25
2023/03/17 01:30:32;;;;;;;9.43;5.37;;;;;;;5.54;81.39;100373.03;5089516;28;20031;-24
2023/03/17 01:32:58;;;;;;;8.95;4.93;;;;;;;5.71;80.36;100364.94;5091228;28;20326;-28
2023/03/17 01:35:25;;;;;;;10.10;5.30;;;;;;;5.80;79.95;100369.16;5089564;28;20024;-26
2023/03/17 01:37:52;;;;;;;8.35;5.20;;;;;;;5.71;79.05;100375.53;5090215;28;20557;-25
2023/03/17 01:40:21;;;;;;;8.82;5.38;;;;;;;5.65;80.32;100377.06;5111185;28;20403;-27
2023/03/17 01:42:51;;;;;;;7.93;5.00;;;;;;;5.61;80.10;100389.81;5093424;28;20038;-26
2023/03/17 01:45:54;;;;;;;9.40;5.80;;;;;;;5.76;79.57;100386.38;5093162;28;20055;-27
2023/03/17 01:48:20;;;;;;;9.10;5.55;;;;;;;5.58;80.18;100373.50;5111521;28;20024;-27
2023/03/17 01:50:47;;;;;;;10.95;6.03;;;;;;;5.54;80.01;100373.03;5093058;28;20028;-25
2023/03/17 01:53:14;;;;;;;9.55;5.57;;;;;;;5.56;80.59;100396.66;5093086;28;20032;-28
2023/03/17 01:55:42;;;;;;;9.43;5.55;;;;;;;5.58;80.21;100390.19;5092810;28;20114;-25
2023/03/17 01:58:08;;;;;;;10.23;5.80;;;;;;;5.50;79.44;100387.63;5111506;28;20479;-28
2023/03/17 02:00:33;;;;;;;10.60;6.25;;;;;;;5.49;81.12;100399.19;5111303;28;20023;-26
2023/03/17 02:02:59;;;;;;;10.00;5.75;;;;;;;5.50;81.00;100387.63;5111129;28;20498;-25
2023/03/17 02:05:29;;;;;;;10.18;6.05;;;;;;;5.41;81.85;100386.84;5111166;28;20023;-25
2023/03/17 02:07:57;;;;;;;10.00;5.78;;;;;;;5.54;80.19;100393.38;5092664;28;20487;-29
2023/03/17 02:10:25;;;;;;;9.02;5.57;;;;;;;5.42;81.46;100382.38;5092682;28;20479;-29
2023/03/17 02:12:55;;;;;;;9.40;5.13;;;;;;;5.33;80.54;100391.38;5092796;28;20027;-24
2023/03/17 02:15:21;;;;;;;10.55;6.35;;;;;;;5.31;81.17;100388.06;5092567;28;20026;-22
2023/03/17 02:17:47;;;;;;;8.88;5.40;;;;;;;5.36;81.49;100391.03;5092120;28;20019;-26
2023/03/17 02:20:16;;;;;;;9.27;5.53;;;;;;;5.33;81.66;100400.16;5075945;28;20057;-24
2023/03/17 02:22:47;;;;;;;9.07;5.30;;;;;;;5.30;82.06;100405.78;5110835;28;20078;-24
2023/03/17 02:25:14;;;;;;;9.75;5.40;;;;;;;5.32;81.91;100395.03;5110469;28;20039;-26
2023/03/17 02:27:46;;;;;;;9.10;5.50;;;;;;;5.46;81.36;100402.19;5092198;28;20032;-29
2023/03/17 02:30:16;;;;;;;7.90;4.90;;;;;;;5.37;81.62;100413.81;5092311;28;20050;-26
2023/03/17 02:32:42;;;;;;;9.85;6.05;;;;;;;5.50;80.73;100413.25;5092410;28;20108;-23
2023/03/17 02:35:08;;;;;;;8.93;5.45;;;;;;;5.46;80.80;100401.38;5110681;28;20103;-26
2023/03/17 02:37:34;;;;;;;9.38;5.70;;;;;;;5.48;80.18;100416.06;5092234;28;20030;-25
2023/03/17 02:40:00;;;;;;;9.05;5.10;;;;;;;5.61;79.87;100418.91;5110345;28;20020;-28
2023/03/17 02:42:27;;;;;;;9.80;5.47;;;;;;;5.37;81.52;100419.94;5110429;28;20047;-25
2023/03/17 02:44:53;;;;;;;8.95;5.20;;;;;;;5.50;80.29;100413.25;5091784;28;20023;-26
2023/03/17 02:47:18;;;;;;;9.68;5.68;;;;;;;5.42;81.03;100422.06;5092159;28;20084;-24
2023/03/17 02:49:44;;;;;;;8.82;5.10;;;;;;;5.38;80.77;100415.47;5109703;28;20020;-26
2023/03/17 02:52:10;;;;;;;8.70;4.88;;;;;;;5.54;79.30;100412.72;5110496;28;20034;-25
2023/03/17 02:54:37;;;;;;;7.22;4.20;;;;;;;5.43;80.12;100416.59;5091848;28;20557;-27
2023/03/17 02:57:02;;;;;;;7.68;4.45;;;;;;;5.49;80.38;100425.63;5091819;28;20411;-27
2023/03/17 02:59:28;;;;;;;7.65;4.80;;;;;;;5.37;80.72;100427.88;5109759;28;20039;-24
2023/03/17 03:01:55;;;;;;;8.10;4.88;;;;;;;5.34;80.16;100422.13;5109932;28;20035;-25
2023/03/17 03:04:21;;;;;;;9.07;4.85;;;;;;;5.23;80.66;100426.81;5091716;28;20034;-26
2023/03/17 03:06:47;;;;;;;8.75;5.55;;;;;;;5.33;80.31;100438.97;5091485;28;20560;-25
2023/03/17 03:09:13;;;;;;;9.00;5.38;;;;;;;5.41;80.44;100444.19;5091561;28;20020;-25
2023/03/17 03:11:40;;;;;;;8.68;4.90;;;;;;;5.49;80.03;100444.16;5109598;28;20077;-24
2023/03/17 03:14:07;;;;;;;7.82;4.72;;;;;;;5.49;80.16;100446.78;5091593;28;20096;-25
2023/03/17 03:16:32;;;;;;;9.00;4.90;;;;;;;5.51;80.08;100439.50;5110011;28;20068;-25
2023/03/17 03:18:58;;;;;;;7.05;4.32;;;;;;;5.53;80.19;100463.97;5091473;28;20118;-29
2023/03/17 03:21:23;;;;;;;7.95;4.90;;;;;;;5.59;80.02;100455.31;5109487;28;20023;-25
2023/03/17 03:23:49;;;;;;;8.88;4.88;;;;;;;5.66;79.76;100452.81;5109157;28;20134;-25
2023/03/17 03:26:15;;;;;;;7.95;4.80;;;;;;;5.63;79.08;100435.44;5109582;28;20031;-27
2023/03/17 03:28:41;;;;;;;8.70;5.35;;;;;;;5.69;78.87;100464.84;5091042;28;20111;-26
2023/03/17 03:31:07;;;;;;;8.43;5.03;;;;;;;5.69;79.77;100465.66;5091282;28;20019;-24
2023/03/17 03:33:33;;;;;;;8.05;4.65;;;;;;;5.81;79.50;100466.09;5091247;28;20038;-24
2023/03/17 03:35:59;;;;;;;7.50;4.63;;;;;;;5.70;79.47;100466.47;5090979;28;20032;-25
2023/03/17 03:38:25;;;;;;;8.75;4.85;;;;;;;5.71;78.87;100463.66;5109315;28;20015;-24
2023/03/17 03:40:51;;;;;;;7.38;4.20;;;;;;;5.71;78.89;100473.44;5090784;28;20049;-26
2023/03/17 03:43:17;;;;;;;8.70;4.72;;;;;;;5.74;79.16;100457.19;5109313;28;20518;-24
2023/03/17 03:45:42;;;;;;;7.75;4.93;;;;;;;5.70;78.25;100450.59;5090744;28;20038;-26
2023/03/17 03:48:08;;;;;;;9.02;4.90;;;;;;;5.76;78.56;100460.47;5109239;28;20122;-25
2023/03/17 03:50:33;;;;;;;8.50;4.97;;;;;;;5.61;78.46;100469.19;5109130;28;20092;-25
2023/03/17 03:52:59;;;;;;;8.48;4.75;;;;;;;5.51;78.89;100455.38;5090655;28;20388;-24
2023/03/17 03:55:24;;;;;;;8.50;5.13;;;;;;;5.74;78.36;100475.72;5108979;28;20027;-25
2023/03/17 03:57:50;;;;;;;7.88;4.85;;;;;;;5.54;77.48;100472.75;5108614;28;20475;-25
2023/03/17 04:00:16;;;;;;;8.30;5.03;;;;;;;5.27;78.47;100466.09;5108815;28;20035;-25
2023/03/17 04:02:45;;;;;;;12.65;6.43;;;;;;;5.23;78.50;100478.84;5089922;28;20060;-24
2023/03/17 04:05:14;;;;;;;9.57;5.65;;;;;;;5.17;78.60;100477.75;5090469;28;20024;-27
2023/03/17 04:07:41;;;;;;;8.85;5.30;;;;;;;4.94;79.20;100466.28;5108618;28;20031;-25
2023/03/17 04:10:08;;;;;;;8.18;4.68;;;;;;;5.05;79.45;100481.78;5090172;28;20107;-28
2023/03/17 04:12:34;;;;;;;8.05;4.80;;;;;;;4.81;79.90;100462.38;5108961;28;20030;-27
2023/03/17 04:15:00;;;;;;;7.95;4.80;;;;;;;5.07;78.88;100485.06;5090390;28;20410;-24
2023/03/17 04:17:25;;;;;;;8.68;4.97;;;;;;;5.00;79.71;100489.38;5108815;28;20158;-25
2023/03/17 04:19:51;;;;;;;8.20;4.60;;;;;;;4.98;79.28;100488.72;5108528;28;20023;-26
2023/03/17 04:22:16;;;;;;;8.32;4.70;;;;;;;5.00;79.25;100497.31;5108341;28;20122;-24
2023/03/17 04:24:42;;;;;;;15.35;5.57;;;;;;;5.03;78.69;100494.34;5108138;28;20042;-25
2023/03/17 04:27:08;;;;;;;9.38;5.57;;;;;;;5.16;78.80;100497.22;5108572;28;20023;-27
2023/03/17 04:29:34;;;;;;;9.98;5.55;;;;;;;4.95;79.71;100510.22;5090190;28;20645;-25
2023/03/17 04:32:00;;;;;;;9.05;5.63;;;;;;;4.99;80.02;100500.97;5089948;28;20042;-27
2023/03/17 04:34:26;;;;;;;8.13;4.85;;;;;;;5.28;78.96;100518.00;5090119;28;20029;-24
2023/03/17 04:36:52;;;;;;;8.82;5.15;;;;;;;5.35;78.12;100521.59;5089864;28;20024;-25
2023/03/17 04:39:17;;;;;;;10.65;5.93;;;;;;;5.23;78.71;100514.06;5089899;28;20019;-28
2023/03/17 04:41:42;;;;;;;9.38;5.55;;;;;;;5.21;79.75;100521.34;5108198;28;20035;-25
2023/03/17 04:44:08;;;;;;;13.15;6.03;;;;;;;4.86;81.53;100525.28;5108522;28;20053;-25
2023/03/17 04:46:34;;;;;;;10.68;5.45;;;;;;;4.78;81.48;100509.44;5108458;28;20156;-25
2023/03/17 04:49:00;;;;;;;11.25;5.65;;;;;;;5.21;78.96;100520.50;5090009;28;20143;-29
2023/03/17 04:51:26;;;;;;;13.23;7.72;;;;;;;5.32;78.94;100521.97;5108279;28;20092;-24
2023/03/17 04:53:51;;;;;;;11.88;6.63;;;;;;;5.47;77.60;100530.78;5089345;28;20020;-27
2023/03/17 04:56:17;;;;;;;9.48;6.07;;;;;;;5.18;78.41;100519.03;5108353;28;20036;-25
2023/03/17 04:58:43;;;;;;;8.23;5.28;;;;;;;5.10;80.11;100542.88;5089960;28;20483;-32
2023/03/17 05:01:09;;;;;;;9.05;5.05;;;;;;;4.98;81.30;100546.88;5090176;28;20035;-24
2023/03/17 05:03:35;;;;;;;15.68;5.28;;;;;;;5.09;80.79;100529.81;5108119;28;20024;-24
2023/03/17 05:06:02;;;;;;;7.90;4.60;;;;;;;5.29;80.04;100543.44;5107961;28;20027;-25
2023/03/17 05:08:27;;;;;;;17.23;10.68;;;;;;;5.20;80.70;100547.97;5089589;28;20400;-25
2023/03/17 05:10:57;;;;;;;9.30;5.80;;;;;;;5.34;80.35;100559.63;5108239;28;20164;-29
2023/03/17 05:13:24;;;;;;;19.20;12.77;;;;;;;5.46;79.08;100546.88;5109751;28;20504;-26
2023/03/17 05:15:51;;;;;;;25.48;13.73;;;;;;;5.36;80.53;100549.72;5111862;28;20165;-25
2023/03/17 05:18:17;;;;;;;12.73;8.95;;;;;;;5.49;79.54;100568.47;5093961;28;20403;-23
2023/03/17 05:20:43;;;;;;;16.95;11.70;;;;;;;5.52;79.00;100562.03;5093512;28;20147;-23
2023/03/17 05:23:09;;;;;;;14.77;9.25;;;;;;;5.43;79.78;100571.81;5093200;28;20050;-30
2023/03/17 05:25:35;;;;;;;16.85;10.82;;;;;;;5.30;80.93;100576.84;5111916;28;20427;-25
2023/03/17 05:28:01;;;;;;;23.52;14.40;;;;;;;5.52;79.45;100562.84;5111693;28;20028;-24
2023/03/17 05:30:26;;;;;;;13.63;8.90;;;;;;;5.19;80.94;100581.50;5112124;28;20035;-23
2023/03/17 05:32:52;;;;;;;12.98;7.78;;;;;;;5.21;81.08;100566.31;5111692;28;20063;-25
2023/03/17 05:35:18;;;;;;;32.40;19.15;;;;;;;5.48;80.38;100580.06;5093450;28;20032;-25
2023/03/17 05:37:45;;;;;;;22.63;14.75;;;;;;;5.49;80.07;100573.78;5111176;28;20024;-26
2023/03/17 05:40:13;;;;;;;19.05;10.25;;;;;;;5.50;80.07;100570.13;5111922;28;20035;-28
2023/03/17 05:42:39;;;;;;;14.85;8.50;;;;;;;5.66;80.08;100586.91;5093171;28;20657;-24
2023/03/17 05:45:06;;;;;;;13.50;8.68;;;;;;;5.79;78.43;100577.41;5093284;28;20072;-24
2023/03/17 05:47:32;;;;;;;22.42;16.77;;;;;;;5.95;78.69;100597.69;5111459;28;20027;-27
2023/03/17 05:50:01;;;;;;;36.40;20.85;;;;;;;5.98;78.63;100602.63;5092802;28;20027;-24
2023/03/17 05:52:27;;;;;;;31.55;18.15;;;;;;;5.59;79.95;100611.41;5092715;28;21275;-25
2023/03/17 05:54:54;;;;;;;19.60;11.38;;;;;;;5.34;82.08;100594.84;5111554;28;20056;-27
2023/03/17 05:57:20;;;;;;;16.67;9.85;;;;;;;5.36;82.18;100602.59;5111509;28;20027;-27
2023/03/17 05:59:46;;;;;;;16.15;11.45;;;;;;;5.87;79.54;100595.06;5092730;28;20035;-24
2023/03/17 06:02:12;;;;;;;13.23;8.52;;;;;;;5.84;78.98;100598.91;5111283;28;20024;-24
2023/03/17 06:04:38;;;;;;;13.57;7.57;;;;;;;6.17;78.28;100609.31;5092608;28;20100;-27
2023/03/17 06:07:05;;;;;;;14.23;8.07;;;;;;;6.28;77.64;100601.94;5092578;28;20077;-25
2023/03/17 06:09:31;;;;;;;13.25;7.30;;;;;;;6.15;78.20;100618.41;5092815;28;20118;-25
2023/03/17 06:11:56;;;;;;;16.17;9.63;;;;;;;6.47;77.11;100613.88;5092496;28;20398;-25
2023/03/17 06:14:22;;;;;;;11.85;7.03;;;;;;;6.57;76.44;100614.44;5111060;28;20037;-25
2023/03/17 06:16:47;;;;;;;12.93;6.50;;;;;;;6.65;76.33;100624.97;5111099;28;20035;-28
2023/03/17 06:19:13;;;;;;;11.63;7.25;;;;;;;6.99;75.09;100626.31;5110952;28;20108;-27
2023/03/17 06:21:39;;;;;;;10.05;5.65;;;;;;;7.07;74.15;100610.31;5110747;28;20024;-25
2023/03/17 06:24:05;;;;;;;7.82;5.35;;;;;;;7.23;74.06;100627.88;5110000;28;20571;-24
2023/03/17 06:26:30;;;;;;;8.40;5.18;;;;;;;7.49;71.83;100624.75;5110439;28;20102;-25
2023/03/17 06:28:56;;;;;;;7.63;4.80;;;;;;;7.79;71.10;100632.69;5111013;28;20450;-25
2023/03/17 06:31:22;;;;;;;8.40;5.13;;;;;;;7.92;70.91;100643.44;5110385;28;20099;-26
2023/03/17 06:33:47;;;;;;;10.35;5.07;;;;;;;7.94;71.08;100636.09;5091609;28;20058;-28
2023/03/17 06:36:13;;;;;;;8.77;4.85;;;;;;;8.01;68.94;100650.28;5101879;28;20081;-25
2023/03/17 06:38:38;;;;;;;7.20;4.32;;;;;;;8.24;66.99;100654.63;5072059;28;20031;-25
2023/03/17 06:41:04;;;;;;;8.70;5.00;;;;;;;8.38;66.27;100644.94;5090228;28;20024;-28
2023/03/17 06:43:30;;;;;;;20.63;11.90;;;;;;;8.42;65.78;100648.91;5090362;28;20055;-25
2023/03/17 06:45:56;;;;;;;17.15;9.43;;;;;;;8.61;66.06;100650.91;5089750;28;20052;-24
2023/03/17 06:48:22;;;;;;;9.50;5.28;;;;;;;8.76;62.86;100644.69;5089958;28;20062;-25
2023/03/17 06:50:49;;;;;;;7.35;4.28;;;;;;;8.45;64.44;100654.63;5071550;28;20031;-25
2023/03/17 06:53:15;;;;;;;8.23;4.85;;;;;;;8.50;66.84;100653.25;5071809;28;20069;-26
2023/03/17 06:55:41;;;;;;;6.53;4.22;;;;;;;8.55;64.78;100664.16;5089667;28;20415;-24
2023/03/17 06:58:08;;;;;;;7.47;4.15;;;;;;;8.67;64.00;100662.63;5089812;28;20055;-27
2023/03/17 07:00:33;;;;;;;5.88;3.80;;;;;;;8.70;63.64;100664.88;5071731;28;20022;-24
2023/03/17 07:02:59;;;;;;;7.57;3.40;;;;;;;8.53;63.38;100666.97;5089642;28;20395;-29
2023/03/17 07:05:25;;;;;;;6.63;3.65;;;;;;;8.68;62.67;100664.25;5089724;28;20403;-25
2023/03/17 07:07:51;;;;;;;5.50;3.38;;;;;;;9.02;61.83;100666.16;5089604;28;21006;-24
2023/03/17 07:10:17;;;;;;;5.30;3.10;;;;;;;8.93;59.87;100682.44;5089776;28;20491;-24
2023/03/17 07:12:43;;;;;;;5.60;3.28;;;;;;;8.92;60.59;100676.31;5071360;28;20028;-25
2023/03/17 07:15:11;;;;;;;7.00;3.85;;;;;;;9.20;58.99;100673.66;5071337;28;20158;-25
2023/03/17 07:17:37;;;;;;;6.47;4.18;;;;;;;9.20;59.50;100668.31;5070869;28;20547;-29
2023/03/17 07:20:02;;;;;;;5.47;3.22;;;;;;;9.46;55.84;100664.19;5071044;28;20115;-26
2023/03/17 07:22:28;;;;;;;6.10;3.10;;;;;;;9.54;56.52;100653.38;5089451;28;20055;-27
2023/03/17 07:24:53;;;;;;;4.43;2.00;;;;;;;9.67;54.33;100657.94;5089327;28;20416;-26
2023/03/17 07:27:20;;;;;;;4.00;1.80;;;;;;;10.08;51.38;100672.22;5089294;28;20027;-27
2023/03/17 07:29:46;;;;;;;4.20;1.92;;;;;;;10.40;50.52;100666.19;5070830;28;20024;-27
2023/03/17 07:32:11;;;;;;;4.75;2.08;;;;;;;10.32;48.21;100684.19;5089052;28;20500;-25
2023/03/17 07:34:37;;;;;;;3.90;1.80;;;;;;;10.17;48.88;100665.69;5089435;28;20039;-26
2023/03/17 07:37:04;;;;;;;3.33;1.60;;;;;;;10.05;48.84;100679.59;5088982;28;20028;-24
2023/03/17 07:39:30;;;;;;;3.33;1.48;;;;;;;9.72;47.40;100681.31;5070896;28;20475;-24
2023/03/17 07:41:55;;;;;;;3.90;1.52;;;;;;;10.10;47.72;100672.84;5088622;28;20024;-27
2023/03/17 07:44:22;;;;;;;4.15;1.80;;;;;;;10.31;46.10;100683.38;5089062;28;20024;-25
2023/03/17 07:46:48;;;;;;;4.00;1.98;;;;;;;10.03;47.71;100673.66;5070433;28;20471;-26
2023/03/17 07:49:14;;;;;;;3.30;1.80;;;;;;;10.26;46.23;100680.47;5088444;28;20037;-25
2023/03/17 07:51:42;;;;;;;5.60;2.17;;;;;;;9.82;48.91;100676.44;5109439;28;20032;-24
2023/03/17 07:54:09;;;;;;;7.90;4.15;;;;;;;9.72;48.84;100682.13;5090868;28;20032;-30
2023/03/17 07:56:35;;;;;;;4.47;2.67;;;;;;;10.05;46.56;100674.28;5090910;28;20031;-24
2023/03/17 07:59:00;;;;;;;8.52;4.93;;;;;;;10.07;46.09;100658.06;5109323;28;20616;-24
2023/03/17 08:01:27;;;;;;;7.30;3.25;;;;;;;10.03;47.06;100644.34;5108953;28;20414;-24
2023/03/17 08:03:53;;;;;;;5.13;2.63;;;;;;;10.41;47.15;100653.66;5090442;28;20063;-25
2023/03/17 08:06:19;;;;;;;3.00;1.75;;;;;;;10.59;45.97;100664.56;5090810;28;20478;-24
2023/03/17 08:08:44;;;;;;;3.13;1.73;;;;;;;10.85;44.48;100674.41;5108907;28;20467;-26
2023/03/17 08:11:11;;;;;;;3.63;1.80;;;;;;;11.39;43.66;100661.00;5108934;28;20035;-30
2023/03/17 08:13:36;;;;;;;3.50;1.58;;;;;;;11.51;43.51;100670.00;5090415;28;20028;-25
2023/03/17 08:16:02;;;;;;;2.95;1.52;;;;;;;11.51;43.78;100670.00;5108545;28;20027;-28
2023/03/17 08:18:28;;;;;;;3.53;1.90;;;;;;;11.74;43.77;100668.69;5108969;28;20088;-25
2023/03/17 08:20:53;;;;;;;2.95;1.48;;;;;;;11.93;40.61;100670.50;5108877;28;20106;-26
2023/03/17 08:23:19;;;;;;;3.33;1.80;;;;;;;11.49;40.26;100657.88;5108431;28;20058;-25
2023/03/17 08:25:46;;;;;;;3.35;1.77;;;;;;;11.39;41.90;100652.97;5089836;28;20024;-25
2023/03/17 08:28:14;;;;;;;3.80;1.88;;;;;;;11.38;43.94;100649.50;5090388;28;20037;-25
2023/03/17 08:30:41;;;;;;;6.30;2.38;;;;;;;11.66;44.69;100651.84;5089973;28;20106;-27
2023/03/17 08:33:07;;;;;;;3.85;2.05;;;;;;;11.73;42.30;100667.03;5090369;28;20135;-25
2023/03/17 08:35:34;;;;;;;3.22;1.70;;;;;;;11.34;41.76;100647.44;5090419;28;20034;-25
2023/03/17 08:37:59;;;;;;;5.10;1.77;;;;;;;11.32;42.31;100649.50;5089874;28;20095;-28
2023/03/17 08:40:25;;;;;;;3.60;1.75;;;;;;;11.22;43.15;100656.09;5108633;28;20465;-26
2023/03/17 08:42:50;;;;;;;3.20;1.70;;;;;;;11.84;41.02;100653.03;5108265;28;20024;-26
2023/03/17 08:45:17;;;;;;;3.65;1.48;;;;;;;11.91;39.94;100653.00;5108087;28;20032;-26
2023/03/17 08:47:43;;;;;;;2.67;1.50;;;;;;;11.58;42.19;100633.38;5089271;28;20031;-26
2023/03/17 08:50:14;;;;;;;2.95;1.65;;;;;;;12.07;42.45;100647.16;5108319;28;20020;-26
2023/03/17 08:52:40;;;;;;;3.70;1.73;;;;;;;12.38;39.99;100654.41;5090040;28;20027;-25
2023/03/17 08:55:07;;;;;;;2.65;1.33;;;;;;;12.77;42.94;100641.75;5089859;28;20027;-25
2023/03/17 08:57:34;;;;;;;2.90;1.37;;;;;;;12.74;37.67;100647.53;5108106;28;20028;-27
2023/03/17 09:00:00;;;;;;;2.88;1.40;;;;;;;12.70;38.08;100650.88;5108024;28;20031;-27
2023/03/17 09:02:27;;;;;;;3.17;1.83;;;;;;;12.32;41.74;100636.53;5089992;28;20027;-26
2023/03/17 09:04:53;;;;;;;3.33;1.55;;;;;;;12.32;41.72;100644.56;5089883;28;20023;-26
2023/03/17 09:07:18;;;;;;;5.43;1.73;;;;;;;12.48;41.08;100632.50;5108161;28;20023;-28
2023/03/17 09:09:45;;;;;;;7.75;1.70;;;;;;;12.35;40.28;100633.41;5089518;28;20024;-26
2023/03/17 09:12:10;;;;;;;2.53;1.35;;;;;;;12.35;42.66;100636.09;5089576;28;20401;-25
2023/03/17 09:14:36;;;;;;;3.17;1.55;;;;;;;12.23;39.67;100640.50;5107846;28;20114;-25
2023/03/17 09:17:01;;;;;;;5.93;2.38;;;;;;;11.94;40.62;100636.56;5108300;28;20027;-25
2023/03/17 09:19:26;;;;;;;4.35;1.60;;;;;;;11.83;39.50;100627.34;5108101;28;20460;-24
2023/03/17 09:21:52;;;;;;;2.45;1.30;;;;;;;12.22;39.49;100634.34;5107770;28;20108;-28
2023/03/17 09:24:19;;;;;;;3.08;1.30;;;;;;;12.70;38.12;100640.97;5089563;28;20030;-24
2023/03/17 09:26:45;;;;;;;2.50;1.40;;;;;;;12.72;37.42;100646.94;5089446;28;20023;-26
2023/03/17 09:29:11;;;;;;;6.90;2.90;;;;;;;12.45;37.41;100628.41;5089802;28;20027;-26
2023/03/17 09:31:37;;;;;;;3.72;1.75;;;;;;;12.83;37.39;100640.88;5089602;28;20027;-27
2023/03/17 09:34:04;;;;;;;3.00;1.60;;;;;;;12.50;38.00;100638.44;5108107;28;20032;-25
2023/03/17 09:36:33;;;;;;;2.75;1.27;;;;;;;12.48;39.06;100631.69;5107967;28;20047;-27
2023/03/17 09:38:59;;;;;;;1.92;1.25;;;;;;;12.56;37.02;100628.75;5089782;28;20035;-25
2023/03/17 09:42:03;;;;;;;3.22;1.20;;;;;;;12.95;38.79;100632.09;5089288;28;20055;-25
2023/03/17 09:44:54;;;;;;;2.17;1.30;;;;;;;12.75;36.70;100638.47;5055426;28;20035;-26
2023/03/17 09:47:57;;;;;;;2.33;1.38;;;;;;;12.61;35.19;100631.59;5089328;28;20041;-26
2023/03/17 09:50:41;;;;;;;2.28;0.98;;;;;;;12.60;36.47;100637.97;5107571;28;20020;-24
2023/03/17 09:53:25;;;;;;;3.35;1.10;;;;;;;12.42;36.53;100630.69;5089376;28;20049;-27
2023/03/17 09:55:57;;;;;;;3.45;1.38;;;;;;;12.74;36.05;100625.31;5107404;28;20031;-28
2023/03/17 09:58:30;;;;;;;3.00;1.52;;;;;;;12.91;36.63;100641.63;5107679;28;20517;-27
2023/03/17 10:00:56;;;;;;;2.95;1.20;;;;;;;12.95;35.19;100637.47;5110155;28;20107;-26
2023/03/17 10:03:23;;;;;;;2.28;0.90;;;;;;;12.46;36.55;100616.69;5092773;28;20034;-25
2023/03/17 10:05:49;;;;;;;3.10;1.85;;;;;;;12.33;38.98;100635.50;5092566;28;20088;-25
2023/03/17 10:08:21;;;;;;;2.67;1.50;;;;;;;12.39;37.84;100628.47;5111181;28;20023;-26
2023/03/17 10:11:05;;;;;;;2.90;1.40;;;;;;;12.33;39.55;100634.69;5092627;28;20027;-25
2023/03/17 10:14:18;;;;;;;3.67;1.40;;;;;;;12.25;37.30;100638.44;5111320;28;20028;-25
2023/03/17 10:16:55;;;;;;;2.75;1.50;;;;;;;11.98;38.34;100633.25;5083054;28;20549;-25
2023/03/17 10:19:39;;;;;;;3.27;1.50;;;;;;;12.19;39.48;100623.25;5092769;28;20168;-27
2023/03/17 10:22:18;;;;;;;2.90;1.10;;;;;;;12.08;38.00;100618.59;5110593;28;20257;-27
2023/03/17 10:24:49;;;;;;;3.13;1.23;;;;;;;12.55;37.65;100619.09;5092192;28;20123;-26
2023/03/17 10:27:16;;;;;;;3.17;1.23;;;;;;;13.19;37.08;100628.56;5092210;28;20493;-25
2023/03/17 10:29:42;;;;;;;3.53;1.42;;;;;;;13.35;35.49;100615.66;5110931;28;20137;-24
2023/03/17 10:32:12;;;;;;;3.72;1.20;;;;;;;13.75;37.18;100616.00;5110713;28;20564;-25
2023/03/17 10:34:40;;;;;;;4.25;1.40;;;;;;;13.17;35.21;100598.50;5092479;28;20689;-26
2023/03/17 10:37:19;;;;;;;4.50;1.33;;;;;;;13.32;36.18;100624.13;5110690;28;20023;-24
2023/03/17 10:39:46;;;;;;;2.65;1.20;;;;;;;13.17;35.38;100619.94;5091857;28;20035;-28
2023/03/17 10:42:23;;;;;;;2.40;1.30;;;;;;;12.98;34.92;100604.91;5091869;28;20028;-27
2023/03/17 10:44:56;;;;;;;2.58;1.10;;;;;;;13.23;33.93;100624.41;5092172;28;20273;-25
2023/03/17 10:47:30;;;;;;;4.53;1.48;;;;;;;13.16;37.22;100615.63;5092208;28;20076;-27
2023/03/17 10:49:58;;;;;;;2.47;1.05;;;;;;;13.22;34.85;100609.38;5091802;28;20500;-25
2023/03/17 10:52:30;;;;;;;3.22;1.20;;;;;;;13.08;34.87;100605.22;5091660;28;20026;-27
2023/03/17 10:55:00;;;;;;;2.15;1.23;;;;;;;13.24;37.36;100593.91;5092079;28;20514;-28
2023/03/17 10:57:27;;;;;;;3.38;1.40;;;;;;;13.51;34.13;100596.31;5110475;28;20053;-25
2023/03/17 10:59:55;;;;;;;3.83;1.40;;;;;;;13.33;37.73;100599.00;5109865;28;20139;-25
2023/03/17 11:02:34;;;;;;;2.95;1.40;;;;;;;13.14;35.42;100598.97;5091746;28;20031;-27
2023/03/17 11:05:04;;;;;;;15.27;8.70;;;;;;;13.30;37.59;100596.75;5110072;28;20474;-26
2023/03/17 11:07:35;;;;;;;60.83;46.70;;;;;;;13.01;36.34;100601.78;5091651;28;20031;-25
2023/03/17 11:10:02;;;;;;;12.13;8.77;;;;;;;13.16;36.53;100599.56;5091379;28;20068;-27
2023/03/17 11:12:36;;;;;;;5.50;1.90;;;;;;;13.04;37.87;100598.66;5091079;28;20027;-26
2023/03/17 11:15:09;;;;;;;2.00;1.25;;;;;;;12.95;37.01;100605.34;5091293;28;20662;-28
2023/03/17 11:18:06;;;;;;;3.95;1.80;;;;;;;12.81;38.13;100604.63;5109969;28;20022;-25
2023/03/17 11:21:08;;;;;;;2.72;1.50;;;;;;;12.49;39.95;100602.06;5109909;28;20059;-25
2023/03/17 11:23:44;;;;;;;3.60;1.80;;;;;;;12.36;40.64;100594.13;5090907;28;20055;-24
2023/03/17 11:26:36;;;;;;;3.85;1.67;;;;;;;12.36;40.29;100602.97;5109500;28;20024;-25
2023/03/17 11:29:23;;;;;;;4.53;2.10;;;;;;;12.22;39.69;100594.22;5109595;28;20090;-30
2023/03/17 11:31:51;;;;;;;4.85;1.80;;;;;;;12.01;39.90;100594.56;5109197;28;20114;-24
2023/03/17 11:34:26;;;;;;;3.88;1.90;;;;;;;12.19;39.71;100581.28;5109680;28;20055;-27